Quenames — WTU9038 — position and weather

sailwx.info

Track history (hours):
 
Tides and Currents Weather Stations Pressure Air Temp Water Temp Dewpoint Dewpoint Depression Visibility Wind Speed Wind Dir Waves Ship Positions

Quenames

Owner: BOSTON MARINE TRANSPORT INC, Pelham, NH. More information available from US FCC via Universal Licensing System and Coast Guard Vessel Documentation Center.

Last reported at 2017-Jun-22 21:49 UTC. Time now 2017-Jun-22 22:25 UTC.
Position N 40°39' W 074°07'.

Length 23 m; draft 3 m.

Type: Tug. MMSI: 367022790.

Date/timePositionNaut miles runAvg speedWind from/ knotsBaromVisibWave heightAir tempDewpointWater temp
2017-Jun-22 21:49N 40°39' W 074°07'0 0.0
2017-Jun-22 21:29N 40°39' W 074°07'0 0.0
2017-Jun-22 20:59N 40°39' W 074°07'0 0.0
2017-Jun-22 20:30N 40°39' W 074°07'0 0.0
2017-Jun-22 19:59N 40°39' W 074°07'0 0.0
2017-Jun-22 19:29N 40°39' W 074°07'0 0.0
2017-Jun-22 19:00N 40°39' W 074°07'0 0.1
2017-Jun-22 18:30N 40°39' W 074°07'0 0.0
2017-Jun-22 18:00N 40°39' W 074°07'0 0.0
2017-Jun-22 17:30N 40°39' W 074°07'1 1.5
2017-Jun-22 17:00N 40°39' W 074°08'1 2.1
2017-Jun-22 16:30N 40°39' W 074°09'2 3.6
2017-Jun-22 16:00N 40°38' W 074°12'2 0.6
2017-Jun-22 12:13N 40°36' W 074°12'0 0.0
2017-Jun-22 12:00N 40°36' W 074°12'0 0.0
2017-Jun-22 11:30N 40°36' W 074°12'0 0.0
2017-Jun-22 11:00N 40°36' W 074°12'0 0.0
2017-Jun-22 10:17N 40°36' W 074°12'0 0.0
2017-Jun-22 10:00N 40°36' W 074°12'0 0.0
2017-Jun-22 09:26N 40°36' W 074°12'0 0.0
2017-Jun-22 08:57N 40°36' W 074°12'0 0.0
2017-Jun-22 08:30N 40°36' W 074°12'0 0.0
2017-Jun-22 08:00N 40°36' W 074°12'0 0.0
2017-Jun-22 07:29N 40°36' W 074°12'0 0.0
2017-Jun-22 07:00N 40°36' W 074°12'0 0.0
2017-Jun-22 05:15N 40°36' W 074°12'0 0.0
2017-Jun-22 05:00N 40°36' W 074°12'0 0.1
2017-Jun-22 02:16N 40°36' W 074°12'1 5.6
2017-Jun-22 02:00N 40°35' W 074°13'3 5.6
2017-Jun-22 01:30N 40°33' W 074°15'0 0.0
2017-Jun-21 16:34N 40°33' W 074°15'0 3.7
2017-Jun-21 16:30N 40°33' W 074°15'0 0.0
2017-Jun-21 12:28N 40°33' W 074°15'1 2.2
2017-Jun-21 12:00N 40°32' W 074°15'0 0.1
2017-Jun-21 11:17N 40°32' W 074°15'0 0.0
2017-Jun-21 11:00N 40°32' W 074°15'0 0.0
2017-Jun-21 10:30N 40°32' W 074°15'0 0.0
2017-Jun-21 10:00N 40°32' W 074°15'0 0.0
2017-Jun-21 09:30N 40°32' W 074°15'4 0.4
2017-Jun-20 21:33N 40°36' W 074°12'0 6.6
2017-Jun-20 21:28N 40°36' W 074°12'3 6.2
2017-Jun-20 21:00N 40°39' W 074°11'3 6.2
2017-Jun-20 20:30N 40°39' W 074°07'0 0.0
2017-Jun-20 20:00N 40°39' W 074°07'0 0.0
2017-Jun-20 19:30N 40°39' W 074°07'0 0.0
2017-Jun-20 19:00N 40°39' W 074°07'0 0.0
2017-Jun-20 18:30N 40°39' W 074°07'0 0.0
2017-Jun-20 18:00N 40°39' W 074°07'0 0.0
2017-Jun-20 17:30N 40°39' W 074°07'0 0.0
2017-Jun-20 17:01N 40°39' W 074°07'0 0.0
2017-Jun-20 16:30N 40°39' W 074°07'0 0.0
2017-Jun-20 16:00N 40°39' W 074°07'0 0.0
2017-Jun-20 15:30N 40°39' W 074°07'0 0.0
2017-Jun-20 15:00N 40°39' W 074°07'0 0.0
2017-Jun-20 14:30N 40°39' W 074°07'0 0.0
2017-Jun-20 13:30N 40°39' W 074°07'0 0.0
2017-Jun-20 13:00N 40°39' W 074°07'0 0.0
2017-Jun-20 12:30N 40°39' W 074°07'0 0.0
2017-Jun-20 12:00N 40°39' W 074°07'0 0.0
2017-Jun-20 11:30N 40°39' W 074°07'0 0.0
2017-Jun-20 11:00N 40°39' W 074°07'0 0.0
2017-Jun-20 10:30N 40°39' W 074°07'0 0.0
2017-Jun-20 10:00N 40°39' W 074°07'0 0.1
2017-Jun-20 09:30N 40°39' W 074°07'2 3.5
2017-Jun-20 09:00N 40°39' W 074°04'2 3.1
2017-Jun-20 08:30N 40°40' W 074°02'0 0.0
2017-Jun-20 08:00N 40°40' W 074°02'0 0.0
2017-Jun-20 07:30N 40°40' W 074°02'0 0.0
2017-Jun-20 07:00N 40°40' W 074°02'0 0.0
2017-Jun-20 06:30N 40°40' W 074°02'0 0.2
2017-Jun-20 06:00N 40°39' W 074°02'0 0.1
2017-Jun-20 05:30N 40°39' W 074°02'0 0.0
2017-Jun-20 05:00N 40°39' W 074°02'0 0.0
2017-Jun-20 04:30N 40°39' W 074°02'0 0.1
2017-Jun-20 04:00N 40°39' W 074°02'0 0.0
2017-Jun-20 03:30N 40°39' W 074°02'0 0.5
2017-Jun-20 03:00N 40°39' W 074°03'3 5.5
2017-Jun-20 02:30N 40°39' W 074°06'3 6.5
2017-Jun-20 02:00N 40°39' W 074°10'2 3.4
2017-Jun-20 01:30N 40°38' W 074°12'2 0.1
2017-Jun-19 09:13N 40°36' W 074°12'0 0.1
2017-Jun-19 08:57N 40°36' W 074°12'2 5.1
2017-Jun-19 08:30N 40°38' W 074°11'4 7.4
2017-Jun-19 08:00N 40°39' W 074°07'1 2.4
2017-Jun-19 07:30N 40°39' W 074°05'0 0.0
2017-Jun-19 07:00N 40°39' W 074°05'0 0.0
2017-Jun-19 06:30N 40°39' W 074°05'0 0.0
2017-Jun-19 06:00N 40°39' W 074°05'0 0.0
2017-Jun-19 05:30N 40°39' W 074°05'0 0.0
2017-Jun-19 05:00N 40°39' W 074°05'0 0.0
2017-Jun-19 04:31N 40°39' W 074°05'0 0.0
2017-Jun-19 04:00N 40°39' W 074°05'0 0.0
2017-Jun-19 03:30N 40°39' W 074°05'0 0.0
2017-Jun-19 03:00N 40°39' W 074°05'0 0.0
2017-Jun-19 02:30N 40°39' W 074°05'0 0.0
2017-Jun-19 02:00N 40°39' W 074°05'0 0.0
2017-Jun-19 01:30N 40°39' W 074°05'0 0.0
2017-Jun-19 01:00N 40°39' W 074°05'0 0.0
2017-Jun-19 00:30N 40°39' W 074°05'0 0.0
2017-Jun-19 00:00N 40°39' W 074°05'0 0.0
2017-Jun-18 23:30N 40°39' W 074°05'0 0.0
2017-Jun-18 23:00N 40°39' W 074°05'0 0.0
2017-Jun-18 22:30N 40°39' W 074°05'0 0.0
2017-Jun-18 22:00N 40°39' W 074°05'0 0.0
2017-Jun-18 21:30N 40°39' W 074°05'0 0.0
2017-Jun-18 21:00N 40°39' W 074°05'0 0.0
2017-Jun-18 20:30N 40°39' W 074°05'0 0.0
2017-Jun-18 20:00N 40°39' W 074°05'0 0.0
2017-Jun-18 19:30N 40°39' W 074°05'0 0.0
2017-Jun-18 19:00N 40°39' W 074°05'0 0.0
2017-Jun-18 18:30N 40°39' W 074°05'0 0.0
2017-Jun-18 18:00N 40°39' W 074°05'0 0.0
2017-Jun-18 17:30N 40°39' W 074°05'0 0.0
2017-Jun-18 17:00N 40°39' W 074°05'0 0.0
2017-Jun-18 16:30N 40°39' W 074°05'0 0.0
2017-Jun-18 16:00N 40°39' W 074°05'0 0.0
2017-Jun-18 15:30N 40°39' W 074°05'0 0.0
2017-Jun-18 15:00N 40°39' W 074°05'0 0.0
2017-Jun-18 14:00N 40°39' W 074°05'0 0.0
2017-Jun-18 13:30N 40°39' W 074°05'1 1.1
2017-Jun-18 13:00N 40°39' W 074°06'3 5.5
2017-Jun-18 12:30N 40°39' W 074°09'2 4.6
2017-Jun-18 12:00N 40°38' W 074°12'2 0.2
2017-Jun-18 03:43N 40°36' W 074°12'0 0.0
2017-Jun-18 02:03N 40°36' W 074°12'0 0.2
2017-Jun-18 02:00N 40°36' W 074°12'0 0.0
2017-Jun-18 01:28N 40°36' W 074°12'0 0.0
2017-Jun-18 00:55N 40°36' W 074°12'0 0.0
2017-Jun-17 21:04N 40°36' W 074°12'0 2.2
2017-Jun-17 20:52N 40°36' W 074°12'3 6.3
2017-Jun-17 20:26N 40°33' W 074°14'1 0.0
2017-Jun-16 14:57N 40°33' W 074°15'0 0.4
2017-Jun-16 14:25N 40°33' W 074°15'6 6.9
2017-Jun-16 13:30N 40°39' W 074°11'4 8.3
2017-Jun-16 13:00N 40°39' W 074°06'4 8.7
2017-Jun-16 12:30N 40°42' W 074°02'611.0
2017-Jun-16 12:00N 40°47' W 073°60'611.2
2017-Jun-16 11:30N 40°52' W 073°56'6 0.3
2017-Jun-15 17:29N 40°58' W 073°54'4 7.2
2017-Jun-15 16:55N 40°54' W 073°55'3 7.4
2017-Jun-15 16:30N 40°51' W 073°57'4 7.0
2017-Jun-15 16:00N 40°48' W 073°59'3 6.4
2017-Jun-15 15:30N 40°45' W 074°01'3 6.2
2017-Jun-15 15:00N 40°42' W 074°02'3 5.8
2017-Jun-15 14:30N 40°40' W 074°04'5 5.3
2017-Jun-15 13:30N 40°39' W 074°11'7 0.8
2017-Jun-15 04:56N 40°33' W 074°15'3 7.1
2017-Jun-15 04:28N 40°35' W 074°13'0 0.0
2017-Jun-15 03:14N 40°35' W 074°13'0 0.0
2017-Jun-15 02:57N 40°35' W 074°13'0 0.0
2017-Jun-15 02:30N 40°35' W 074°13'0 0.0
2017-Jun-15 01:34N 40°35' W 074°13'0 0.1
2017-Jun-15 01:29N 40°35' W 074°13'0 0.2
2017-Jun-14 23:47N 40°35' W 074°13'3 6.3
2017-Jun-14 23:19N 40°33' W 074°15'0 1.3
2017-Jun-14 23:00N 40°33' W 074°15'0 0.0
2017-Jun-14 18:17N 40°33' W 074°15'0 0.7
2017-Jun-14 17:51N 40°33' W 074°15'3 7.2
2017-Jun-14 17:22N 40°36' W 074°12'3 7.1
2017-Jun-14 17:00N 40°38' W 074°12'4 7.1
2017-Jun-14 16:30N 40°39' W 074°07'0 0.4
2017-Jun-14 16:00N 40°39' W 074°07'0 0.0
2017-Jun-14 15:30N 40°39' W 074°07'0 0.0
2017-Jun-14 15:00N 40°39' W 074°07'0 0.0
2017-Jun-14 14:00N 40°39' W 074°07'0 0.0
2017-Jun-14 13:30N 40°39' W 074°07'0 0.0
2017-Jun-14 13:00N 40°39' W 074°07'0 0.0
2017-Jun-14 12:30N 40°39' W 074°07'0 0.0
2017-Jun-14 12:00N 40°39' W 074°07'0 0.0
2017-Jun-14 11:30N 40°39' W 074°07'0 0.0
2017-Jun-14 11:00N 40°39' W 074°07'0 0.0
2017-Jun-14 10:30N 40°39' W 074°07'0 0.0
2017-Jun-14 10:00N 40°39' W 074°07'0 0.0
2017-Jun-14 09:30N 40°39' W 074°07'0 0.0
2017-Jun-14 09:00N 40°39' W 074°07'0 0.0
2017-Jun-14 08:30N 40°39' W 074°07'0 0.0
2017-Jun-14 08:00N 40°39' W 074°07'0 0.0
2017-Jun-14 07:30N 40°39' W 074°07'0 0.0
2017-Jun-14 07:00N 40°39' W 074°07'0 0.0
2017-Jun-14 06:30N 40°39' W 074°07'0 0.0
2017-Jun-14 06:00N 40°39' W 074°07'0 0.0
2017-Jun-14 05:30N 40°39' W 074°07'0 0.0
2017-Jun-14 05:00N 40°39' W 074°07'0 0.0
2017-Jun-14 04:30N 40°39' W 074°07'0 0.1
2017-Jun-14 04:00N 40°39' W 074°07'1 1.0
2017-Jun-14 03:30N 40°39' W 074°06'1 1.4
2017-Jun-14 03:00N 40°39' W 074°07'3 6.1
2017-Jun-14 02:30N 40°39' W 074°11'2 4.4
2017-Jun-14 01:56N 40°36' W 074°12'0 0.0
2017-Jun-14 00:11N 40°36' W 074°12'0 0.0
2017-Jun-14 00:00N 40°36' W 074°12'0 0.0
2017-Jun-13 23:29N 40°36' W 074°12'0 0.0
2017-Jun-13 22:06N 40°36' W 074°12'0 0.0
2017-Jun-13 21:52N 40°36' W 074°12'0 0.0
2017-Jun-13 21:22N 40°36' W 074°12'0 0.0
2017-Jun-13 20:57N 40°36' W 074°12'0 0.0
2017-Jun-13 20:30N 40°36' W 074°12'0 0.0
2017-Jun-13 15:16N 40°36' W 074°12'1 5.3
2017-Jun-13 15:00N 40°38' W 074°12'4 4.1
2017-Jun-13 14:00N 40°41' W 074°10'1 1.3
2017-Jun-13 13:30N 40°41' W 074°09'2 4.9
2017-Jun-13 13:00N 40°39' W 074°08'5 9.0
2017-Jun-13 12:30N 40°40' W 074°02'4 7.0
2017-Jun-13 12:00N 40°43' W 073°59'4 7.5
2017-Jun-13 11:29N 40°46' W 073°57'4 7.3
2017-Jun-13 11:00N 40°48' W 073°53'5 7.4
2017-Jun-13 10:23N 40°49' W 073°47'  
Track history (hours):
 
Tides and Currents Weather Stations Pressure Air Temp Water Temp Dewpoint Dewpoint Depression Visibility Wind Speed Wind Dir Waves Ship Positions

Quenames

Owner: BOSTON MARINE TRANSPORT INC, Pelham, NH. More information available from US FCC via Universal Licensing System and Coast Guard Vessel Documentation Center.

Last reported at 2017-Jun-22 21:49 UTC. Time now 2017-Jun-22 22:25 UTC.
Position N 40°39' W 074°07'.

Length 23 m; draft 3 m.

Type: Tug. MMSI: 367022790.

Date/timePositionNaut miles runAvg speedWind from/ knotsBaromVisibWave heightAir tempDewpointWater temp
2017-Jun-22 21:49N 40°39' W 074°07'0 0.0
2017-Jun-22 21:29N 40°39' W 074°07'0 0.0
2017-Jun-22 20:59N 40°39' W 074°07'0 0.0
2017-Jun-22 20:30N 40°39' W 074°07'0 0.0
2017-Jun-22 19:59N 40°39' W 074°07'0 0.0
2017-Jun-22 19:29N 40°39' W 074°07'0 0.0
2017-Jun-22 19:00N 40°39' W 074°07'0 0.1
2017-Jun-22 18:30N 40°39' W 074°07'0 0.0
2017-Jun-22 18:00N 40°39' W 074°07'0 0.0
2017-Jun-22 17:30N 40°39' W 074°07'1 1.5
2017-Jun-22 17:00N 40°39' W 074°08'1 2.1
2017-Jun-22 16:30N 40°39' W 074°09'2 3.6
2017-Jun-22 16:00N 40°38' W 074°12'2 0.6
2017-Jun-22 12:13N 40°36' W 074°12'0 0.0
2017-Jun-22 12:00N 40°36' W 074°12'0 0.0
2017-Jun-22 11:30N 40°36' W 074°12'0 0.0
2017-Jun-22 11:00N 40°36' W 074°12'0 0.0
2017-Jun-22 10:17N 40°36' W 074°12'0 0.0
2017-Jun-22 10:00N 40°36' W 074°12'0 0.0
2017-Jun-22 09:26N 40°36' W 074°12'0 0.0
2017-Jun-22 08:57N 40°36' W 074°12'0 0.0
2017-Jun-22 08:30N 40°36' W 074°12'0 0.0
2017-Jun-22 08:00N 40°36' W 074°12'0 0.0
2017-Jun-22 07:29N 40°36' W 074°12'0 0.0
2017-Jun-22 07:00N 40°36' W 074°12'0 0.0
2017-Jun-22 05:15N 40°36' W 074°12'0 0.0
2017-Jun-22 05:00N 40°36' W 074°12'0 0.1
2017-Jun-22 02:16N 40°36' W 074°12'1 5.6
2017-Jun-22 02:00N 40°35' W 074°13'3 5.6
2017-Jun-22 01:30N 40°33' W 074°15'0 0.0
2017-Jun-21 16:34N 40°33' W 074°15'0 3.7
2017-Jun-21 16:30N 40°33' W 074°15'0 0.0
2017-Jun-21 12:28N 40°33' W 074°15'1 2.2
2017-Jun-21 12:00N 40°32' W 074°15'0 0.1
2017-Jun-21 11:17N 40°32' W 074°15'0 0.0
2017-Jun-21 11:00N 40°32' W 074°15'0 0.0
2017-Jun-21 10:30N 40°32' W 074°15'0 0.0
2017-Jun-21 10:00N 40°32' W 074°15'0 0.0
2017-Jun-21 09:30N 40°32' W 074°15'4 0.4
2017-Jun-20 21:33N 40°36' W 074°12'0 6.6
2017-Jun-20 21:28N 40°36' W 074°12'3 6.2
2017-Jun-20 21:00N 40°39' W 074°11'3 6.2
2017-Jun-20 20:30N 40°39' W 074°07'0 0.0
2017-Jun-20 20:00N 40°39' W 074°07'0 0.0
2017-Jun-20 19:30N 40°39' W 074°07'0 0.0
2017-Jun-20 19:00N 40°39' W 074°07'0 0.0
2017-Jun-20 18:30N 40°39' W 074°07'0 0.0
2017-Jun-20 18:00N 40°39' W 074°07'0 0.0
2017-Jun-20 17:30N 40°39' W 074°07'0 0.0
2017-Jun-20 17:01N 40°39' W 074°07'0 0.0
2017-Jun-20 16:30N 40°39' W 074°07'0 0.0
2017-Jun-20 16:00N 40°39' W 074°07'0 0.0
2017-Jun-20 15:30N 40°39' W 074°07'0 0.0
2017-Jun-20 15:00N 40°39' W 074°07'0 0.0
2017-Jun-20 14:30N 40°39' W 074°07'0 0.0
2017-Jun-20 13:30N 40°39' W 074°07'0 0.0
2017-Jun-20 13:00N 40°39' W 074°07'0 0.0
2017-Jun-20 12:30N 40°39' W 074°07'0 0.0
2017-Jun-20 12:00N 40°39' W 074°07'0 0.0
2017-Jun-20 11:30N 40°39' W 074°07'0 0.0
2017-Jun-20 11:00N 40°39' W 074°07'0 0.0
2017-Jun-20 10:30N 40°39' W 074°07'0 0.0
2017-Jun-20 10:00N 40°39' W 074°07'0 0.1
2017-Jun-20 09:30N 40°39' W 074°07'2 3.5
2017-Jun-20 09:00N 40°39' W 074°04'2 3.1
2017-Jun-20 08:30N 40°40' W 074°02'0 0.0
2017-Jun-20 08:00N 40°40' W 074°02'0 0.0
2017-Jun-20 07:30N 40°40' W 074°02'0 0.0
2017-Jun-20 07:00N 40°40' W 074°02'0 0.0
2017-Jun-20 06:30N 40°40' W 074°02'0 0.2
2017-Jun-20 06:00N 40°39' W 074°02'0 0.1
2017-Jun-20 05:30N 40°39' W 074°02'0 0.0
2017-Jun-20 05:00N 40°39' W 074°02'0 0.0
2017-Jun-20 04:30N 40°39' W 074°02'0 0.1
2017-Jun-20 04:00N 40°39' W 074°02'0 0.0
2017-Jun-20 03:30N 40°39' W 074°02'0 0.5
2017-Jun-20 03:00N 40°39' W 074°03'3 5.5
2017-Jun-20 02:30N 40°39' W 074°06'3 6.5
2017-Jun-20 02:00N 40°39' W 074°10'2 3.4
2017-Jun-20 01:30N 40°38' W 074°12'2 0.1
2017-Jun-19 09:13N 40°36' W 074°12'0 0.1
2017-Jun-19 08:57N 40°36' W 074°12'2 5.1
2017-Jun-19 08:30N 40°38' W 074°11'4 7.4
2017-Jun-19 08:00N 40°39' W 074°07'1 2.4
2017-Jun-19 07:30N 40°39' W 074°05'0 0.0
2017-Jun-19 07:00N 40°39' W 074°05'0 0.0
2017-Jun-19 06:30N 40°39' W 074°05'0 0.0
2017-Jun-19 06:00N 40°39' W 074°05'0 0.0
2017-Jun-19 05:30N 40°39' W 074°05'0 0.0
2017-Jun-19 05:00N 40°39' W 074°05'0 0.0
2017-Jun-19 04:31N 40°39' W 074°05'0 0.0
2017-Jun-19 04:00N 40°39' W 074°05'0 0.0
2017-Jun-19 03:30N 40°39' W 074°05'0 0.0
2017-Jun-19 03:00N 40°39' W 074°05'0 0.0
2017-Jun-19 02:30N 40°39' W 074°05'0 0.0
2017-Jun-19 02:00N 40°39' W 074°05'0 0.0
2017-Jun-19 01:30N 40°39' W 074°05'0 0.0
2017-Jun-19 01:00N 40°39' W 074°05'0 0.0
2017-Jun-19 00:30N 40°39' W 074°05'0 0.0
2017-Jun-19 00:00N 40°39' W 074°05'0 0.0
2017-Jun-18 23:30N 40°39' W 074°05'0 0.0
2017-Jun-18 23:00N 40°39' W 074°05'0 0.0
2017-Jun-18 22:30N 40°39' W 074°05'0 0.0
2017-Jun-18 22:00N 40°39' W 074°05'0 0.0
2017-Jun-18 21:30N 40°39' W 074°05'0 0.0
2017-Jun-18 21:00N 40°39' W 074°05'0 0.0
2017-Jun-18 20:30N 40°39' W 074°05'0 0.0
2017-Jun-18 20:00N 40°39' W 074°05'0 0.0
2017-Jun-18 19:30N 40°39' W 074°05'0 0.0
2017-Jun-18 19:00N 40°39' W 074°05'0 0.0
2017-Jun-18 18:30N 40°39' W 074°05'0 0.0
2017-Jun-18 18:00N 40°39' W 074°05'0 0.0
2017-Jun-18 17:30N 40°39' W 074°05'0 0.0
2017-Jun-18 17:00N 40°39' W 074°05'0 0.0
2017-Jun-18 16:30N 40°39' W 074°05'0 0.0
2017-Jun-18 16:00N 40°39' W 074°05'0 0.0
2017-Jun-18 15:30N 40°39' W 074°05'0 0.0
2017-Jun-18 15:00N 40°39' W 074°05'0 0.0
2017-Jun-18 14:00N 40°39' W 074°05'0 0.0
2017-Jun-18 13:30N 40°39' W 074°05'1 1.1
2017-Jun-18 13:00N 40°39' W 074°06'3 5.5
2017-Jun-18 12:30N 40°39' W 074°09'2 4.6
2017-Jun-18 12:00N 40°38' W 074°12'2 0.2
2017-Jun-18 03:43N 40°36' W 074°12'0 0.0
2017-Jun-18 02:03N 40°36' W 074°12'0 0.2
2017-Jun-18 02:00N 40°36' W 074°12'0 0.0
2017-Jun-18 01:28N 40°36' W 074°12'0 0.0
2017-Jun-18 00:55N 40°36' W 074°12'0 0.0
2017-Jun-17 21:04N 40°36' W 074°12'0 2.2
2017-Jun-17 20:52N 40°36' W 074°12'3 6.3
2017-Jun-17 20:26N 40°33' W 074°14'1 0.0
2017-Jun-16 14:57N 40°33' W 074°15'0 0.4
2017-Jun-16 14:25N 40°33' W 074°15'6 6.9
2017-Jun-16 13:30N 40°39' W 074°11'4 8.3
2017-Jun-16 13:00N 40°39' W 074°06'4 8.7
2017-Jun-16 12:30N 40°42' W 074°02'611.0
2017-Jun-16 12:00N 40°47' W 073°60'611.2
2017-Jun-16 11:30N 40°52' W 073°56'6 0.3
2017-Jun-15 17:29N 40°58' W 073°54'4 7.2
2017-Jun-15 16:55N 40°54' W 073°55'3 7.4
2017-Jun-15 16:30N 40°51' W 073°57'4 7.0
2017-Jun-15 16:00N 40°48' W 073°59'3 6.4
2017-Jun-15 15:30N 40°45' W 074°01'3 6.2
2017-Jun-15 15:00N 40°42' W 074°02'3 5.8
2017-Jun-15 14:30N 40°40' W 074°04'5 5.3
2017-Jun-15 13:30N 40°39' W 074°11'7 0.8
2017-Jun-15 04:56N 40°33' W 074°15'3 7.1
2017-Jun-15 04:28N 40°35' W 074°13'0 0.0
2017-Jun-15 03:14N 40°35' W 074°13'0 0.0
2017-Jun-15 02:57N 40°35' W 074°13'0 0.0
2017-Jun-15 02:30N 40°35' W 074°13'0 0.0
2017-Jun-15 01:34N 40°35' W 074°13'0 0.1
2017-Jun-15 01:29N 40°35' W 074°13'0 0.2
2017-Jun-14 23:47N 40°35' W 074°13'3 6.3
2017-Jun-14 23:19N 40°33' W 074°15'0 1.3
2017-Jun-14 23:00N 40°33' W 074°15'0 0.0
2017-Jun-14 18:17N 40°33' W 074°15'0 0.7
2017-Jun-14 17:51N 40°33' W 074°15'3 7.2
2017-Jun-14 17:22N 40°36' W 074°12'3 7.1
2017-Jun-14 17:00N 40°38' W 074°12'4 7.1
2017-Jun-14 16:30N 40°39' W 074°07'0 0.4
2017-Jun-14 16:00N 40°39' W 074°07'0 0.0
2017-Jun-14 15:30N 40°39' W 074°07'0 0.0
2017-Jun-14 15:00N 40°39' W 074°07'0 0.0
2017-Jun-14 14:00N 40°39' W 074°07'0 0.0
2017-Jun-14 13:30N 40°39' W 074°07'0 0.0
2017-Jun-14 13:00N 40°39' W 074°07'0 0.0
2017-Jun-14 12:30N 40°39' W 074°07'0 0.0
2017-Jun-14 12:00N 40°39' W 074°07'0 0.0
2017-Jun-14 11:30N 40°39' W 074°07'0 0.0
2017-Jun-14 11:00N 40°39' W 074°07'0 0.0
2017-Jun-14 10:30N 40°39' W 074°07'0 0.0
2017-Jun-14 10:00N 40°39' W 074°07'0 0.0
2017-Jun-14 09:30N 40°39' W 074°07'0 0.0
2017-Jun-14 09:00N 40°39' W 074°07'0 0.0
2017-Jun-14 08:30N 40°39' W 074°07'0 0.0
2017-Jun-14 08:00N 40°39' W 074°07'0 0.0
2017-Jun-14 07:30N 40°39' W 074°07'0 0.0
2017-Jun-14 07:00N 40°39' W 074°07'0 0.0
2017-Jun-14 06:30N 40°39' W 074°07'0 0.0
2017-Jun-14 06:00N 40°39' W 074°07'0 0.0
2017-Jun-14 05:30N 40°39' W 074°07'0 0.0
2017-Jun-14 05:00N 40°39' W 074°07'0 0.0
2017-Jun-14 04:30N 40°39' W 074°07'0 0.1
2017-Jun-14 04:00N 40°39' W 074°07'1 1.0
2017-Jun-14 03:30N 40°39' W 074°06'1 1.4
2017-Jun-14 03:00N 40°39' W 074°07'3 6.1
2017-Jun-14 02:30N 40°39' W 074°11'2 4.4
2017-Jun-14 01:56N 40°36' W 074°12'0 0.0
2017-Jun-14 00:11N 40°36' W 074°12'0 0.0
2017-Jun-14 00:00N 40°36' W 074°12'0 0.0
2017-Jun-13 23:29N 40°36' W 074°12'0 0.0
2017-Jun-13 22:06N 40°36' W 074°12'0 0.0
2017-Jun-13 21:52N 40°36' W 074°12'0 0.0
2017-Jun-13 21:22N 40°36' W 074°12'0 0.0
2017-Jun-13 20:57N 40°36' W 074°12'0 0.0
2017-Jun-13 20:30N 40°36' W 074°12'0 0.0
2017-Jun-13 15:16N 40°36' W 074°12'1 5.3
2017-Jun-13 15:00N 40°38' W 074°12'4 4.1
2017-Jun-13 14:00N 40°41' W 074°10'1 1.3
2017-Jun-13 13:30N 40°41' W 074°09'2 4.9
2017-Jun-13 13:00N 40°39' W 074°08'5 9.0
2017-Jun-13 12:30N 40°40' W 074°02'4 7.0
2017-Jun-13 12:00N 40°43' W 073°59'4 7.5
2017-Jun-13 11:29N 40°46' W 073°57'4 7.3
2017-Jun-13 11:00N 40°48' W 073°53'5 7.4
2017-Jun-13 10:23N 40°49' W 073°47'  

Dump ship's entire track history